sensor_id;sensor_type;location;lat;lon;timestamp;P1;durP1;ratioP1;P2;durP2;ratioP2
6077;SDS011;3067;49.470;10.394;2022-09-27T00:01:24;2.00;;;1.90;;
6077;SDS011;3067;49.470;10.394;2022-09-27T00:03:53;1.83;;;1.63;;
6077;SDS011;3067;49.470;10.394;2022-09-27T00:06:22;2.37;;;2.17;;
6077;SDS011;3067;49.470;10.394;2022-09-27T00:08:50;3.37;;;2.10;;
6077;SDS011;3067;49.470;10.394;2022-09-27T00:11:19;2.20;;;2.10;;
6077;SDS011;3067;49.470;10.394;2022-09-27T00:13:48;2.33;;;2.00;;
6077;SDS011;3067;49.470;10.394;2022-09-27T00:16:16;2.60;;;2.40;;
6077;SDS011;3067;49.470;10.394;2022-09-27T00:18:44;3.70;;;2.10;;
6077;SDS011;3067;49.470;10.394;2022-09-27T00:21:12;4.47;;;2.70;;
6077;SDS011;3067;49.470;10.394;2022-09-27T00:23:39;2.93;;;2.63;;
6077;SDS011;3067;49.470;10.394;2022-09-27T00:26:07;2.90;;;2.60;;
6077;SDS011;3067;49.470;10.394;2022-09-27T00:28:36;2.23;;;2.03;;
6077;SDS011;3067;49.470;10.394;2022-09-27T00:31:04;3.67;;;2.80;;
6077;SDS011;3067;49.470;10.394;2022-09-27T00:33:37;2.97;;;2.30;;
6077;SDS011;3067;49.470;10.394;2022-09-27T00:36:06;3.03;;;2.70;;
6077;SDS011;3067;49.470;10.394;2022-09-27T00:38:33;2.93;;;2.60;;
6077;SDS011;3067;49.470;10.394;2022-09-27T00:41:01;2.83;;;2.60;;
6077;SDS011;3067;49.470;10.394;2022-09-27T00:43:40;2.10;;;2.00;;
6077;SDS011;3067;49.470;10.394;2022-09-27T00:46:08;3.90;;;2.67;;
6077;SDS011;3067;49.470;10.394;2022-09-27T00:48:36;4.20;;;2.50;;
6077;SDS011;3067;49.470;10.394;2022-09-27T00:51:05;2.80;;;2.57;;
6077;SDS011;3067;49.470;10.394;2022-09-27T00:53:34;2.90;;;2.70;;
6077;SDS011;3067;49.470;10.394;2022-09-27T00:56:03;6.47;;;2.30;;
6077;SDS011;3067;49.470;10.394;2022-09-27T00:58:34;2.97;;;2.77;;
6077;SDS011;3067;49.470;10.394;2022-09-27T01:01:03;3.70;;;3.40;;
6077;SDS011;3067;49.470;10.394;2022-09-27T01:03:33;2.87;;;2.67;;
6077;SDS011;3067;49.470;10.394;2022-09-27T01:06:02;2.07;;;1.87;;
6077;SDS011;3067;49.470;10.394;2022-09-27T01:08:33;4.43;;;2.50;;
6077;SDS011;3067;49.470;10.394;2022-09-27T01:11:09;19.73;;;2.00;;
6077;SDS011;3067;49.470;10.394;2022-09-27T01:13:41;2.93;;;2.23;;
6077;SDS011;3067;49.470;10.394;2022-09-27T01:16:11;3.83;;;1.83;;
6077;SDS011;3067;49.470;10.394;2022-09-27T01:18:46;1.80;;;1.70;;
6077;SDS011;3067;49.470;10.394;2022-09-27T01:24:22;2.87;;;1.83;;
6077;SDS011;3067;49.470;10.394;2022-09-27T01:29:38;1.77;;;1.57;;
6077;SDS011;3067;49.470;10.394;2022-09-27T01:32:16;2.90;;;1.50;;
6077;SDS011;3067;49.470;10.394;2022-09-27T01:34:46;1.60;;;1.40;;
6077;SDS011;3067;49.470;10.394;2022-09-27T01:37:17;1.40;;;1.30;;
6077;SDS011;3067;49.470;10.394;2022-09-27T01:39:48;1.90;;;1.30;;
6077;SDS011;3067;49.470;10.394;2022-09-27T01:42:20;1.53;;;1.47;;
6077;SDS011;3067;49.470;10.394;2022-09-27T01:44:49;3.60;;;1.10;;
6077;SDS011;3067;49.470;10.394;2022-09-27T01:47:20;1.30;;;1.00;;
6077;SDS011;3067;49.470;10.394;2022-09-27T01:49:51;1.20;;;1.20;;
6077;SDS011;3067;49.470;10.394;2022-09-27T01:52:19;1.40;;;1.30;;
6077;SDS011;3067;49.470;10.394;2022-09-27T01:54:49;1.10;;;1.10;;
6077;SDS011;3067;49.470;10.394;2022-09-27T01:57:18;1.43;;;1.20;;
6077;SDS011;3067;49.470;10.394;2022-09-27T01:59:48;1.30;;;1.20;;
6077;SDS011;3067;49.470;10.394;2022-09-27T02:02:20;1.13;;;1.13;;
6077;SDS011;3067;49.470;10.394;2022-09-27T02:04:49;1.00;;;1.00;;
6077;SDS011;3067;49.470;10.394;2022-09-27T02:07:18;1.10;;;1.10;;
6077;SDS011;3067;49.470;10.394;2022-09-27T02:09:47;2.50;;;0.93;;
6077;SDS011;3067;49.470;10.394;2022-09-27T02:12:15;0.80;;;0.80;;
6077;SDS011;3067;49.470;10.394;2022-09-27T02:14:45;1.07;;;1.00;;
6077;SDS011;3067;49.470;10.394;2022-09-27T02:17:15;1.00;;;1.00;;
6077;SDS011;3067;49.470;10.394;2022-09-27T02:19:49;0.90;;;0.90;;
6077;SDS011;3067;49.470;10.394;2022-09-27T02:22:19;1.07;;;1.07;;
6077;SDS011;3067;49.470;10.394;2022-09-27T02:24:52;1.20;;;1.10;;
6077;SDS011;3067;49.470;10.394;2022-09-27T02:27:21;2.10;;;1.20;;
6077;SDS011;3067;49.470;10.394;2022-09-27T02:29:52;1.00;;;1.00;;
6077;SDS011;3067;49.470;10.394;2022-09-27T02:32:21;0.83;;;0.83;;
6077;SDS011;3067;49.470;10.394;2022-09-27T02:34:50;1.03;;;1.03;;
6077;SDS011;3067;49.470;10.394;2022-09-27T02:37:20;1.03;;;0.93;;
6077;SDS011;3067;49.470;10.394;2022-09-27T02:39:47;1.17;;;0.97;;
6077;SDS011;3067;49.470;10.394;2022-09-27T02:42:15;0.97;;;0.97;;
6077;SDS011;3067;49.470;10.394;2022-09-27T02:44:42;1.47;;;1.10;;
6077;SDS011;3067;49.470;10.394;2022-09-27T02:47:14;0.93;;;0.93;;
6077;SDS011;3067;49.470;10.394;2022-09-27T02:49:51;1.20;;;1.10;;
6077;SDS011;3067;49.470;10.394;2022-09-27T02:52:24;4.80;;;1.30;;
6077;SDS011;3067;49.470;10.394;2022-09-27T02:54:58;1.00;;;1.00;;
6077;SDS011;3067;49.470;10.394;2022-09-27T02:57:29;1.23;;;1.10;;
6077;SDS011;3067;49.470;10.394;2022-09-27T02:59:59;1.00;;;1.00;;
6077;SDS011;3067;49.470;10.394;2022-09-27T03:02:31;2.50;;;1.47;;
6077;SDS011;3067;49.470;10.394;2022-09-27T03:05:01;1.57;;;1.20;;
6077;SDS011;3067;49.470;10.394;2022-09-27T03:07:29;2.10;;;1.40;;
6077;SDS011;3067;49.470;10.394;2022-09-27T03:09:56;1.07;;;1.07;;
6077;SDS011;3067;49.470;10.394;2022-09-27T03:12:24;1.10;;;1.10;;
6077;SDS011;3067;49.470;10.394;2022-09-27T03:14:52;1.10;;;1.10;;
6077;SDS011;3067;49.470;10.394;2022-09-27T03:17:20;1.70;;;1.03;;
6077;SDS011;3067;49.470;10.394;2022-09-27T03:19:47;3.27;;;1.23;;
6077;SDS011;3067;49.470;10.394;2022-09-27T03:22:16;1.00;;;1.00;;
6077;SDS011;3067;49.470;10.394;2022-09-27T03:24:43;1.30;;;1.30;;
6077;SDS011;3067;49.470;10.394;2022-09-27T03:27:11;1.17;;;1.17;;
6077;SDS011;3067;49.470;10.394;2022-09-27T03:29:38;1.00;;;1.00;;
6077;SDS011;3067;49.470;10.394;2022-09-27T03:32:06;2.20;;;0.80;;
6077;SDS011;3067;49.470;10.394;2022-09-27T03:34:33;1.13;;;1.13;;
6077;SDS011;3067;49.470;10.394;2022-09-27T03:37:00;1.10;;;1.00;;
6077;SDS011;3067;49.470;10.394;2022-09-27T03:39:29;1.00;;;1.00;;
6077;SDS011;3067;49.470;10.394;2022-09-27T03:41:57;2.40;;;1.00;;
6077;SDS011;3067;49.470;10.394;2022-09-27T03:44:24;1.20;;;1.10;;
6077;SDS011;3067;49.470;10.394;2022-09-27T03:46:52;1.57;;;0.90;;
6077;SDS011;3067;49.470;10.394;2022-09-27T03:49:19;1.10;;;1.10;;
6077;SDS011;3067;49.470;10.394;2022-09-27T03:51:46;1.57;;;1.00;;
6077;SDS011;3067;49.470;10.394;2022-09-27T03:54:14;1.80;;;1.03;;
6077;SDS011;3067;49.470;10.394;2022-09-27T03:56:42;3.43;;;1.00;;
6077;SDS011;3067;49.470;10.394;2022-09-27T03:59:10;1.40;;;1.03;;
6077;SDS011;3067;49.470;10.394;2022-09-27T04:01:37;2.87;;;1.40;;
6077;SDS011;3067;49.470;10.394;2022-09-27T04:04:05;2.60;;;0.97;;
6077;SDS011;3067;49.470;10.394;2022-09-27T04:06:32;1.63;;;1.10;;
6077;SDS011;3067;49.470;10.394;2022-09-27T04:09:00;2.13;;;1.10;;
6077;SDS011;3067;49.470;10.394;2022-09-27T04:11:27;1.67;;;1.50;;
6077;SDS011;3067;49.470;10.394;2022-09-27T04:13:56;2.20;;;1.70;;
6077;SDS011;3067;49.470;10.394;2022-09-27T04:16:23;2.90;;;1.30;;
6077;SDS011;3067;49.470;10.394;2022-09-27T04:18:51;2.77;;;1.20;;
6077;SDS011;3067;49.470;10.394;2022-09-27T04:21:19;5.90;;;1.40;;
6077;SDS011;3067;49.470;10.394;2022-09-27T04:23:46;2.80;;;1.27;;
6077;SDS011;3067;49.470;10.394;2022-09-27T04:26:14;2.40;;;1.13;;
6077;SDS011;3067;49.470;10.394;2022-09-27T04:28:41;3.80;;;1.37;;
6077;SDS011;3067;49.470;10.394;2022-09-27T04:31:10;1.37;;;1.27;;
6077;SDS011;3067;49.470;10.394;2022-09-27T04:33:37;1.37;;;1.27;;
6077;SDS011;3067;49.470;10.394;2022-09-27T04:36:05;1.67;;;1.57;;
6077;SDS011;3067;49.470;10.394;2022-09-27T04:38:50;5.13;;;1.30;;
6077;SDS011;3067;49.470;10.394;2022-09-27T04:41:17;1.37;;;1.20;;
6077;SDS011;3067;49.470;10.394;2022-09-27T04:43:45;1.53;;;1.43;;
6077;SDS011;3067;49.470;10.394;2022-09-27T04:46:14;4.60;;;1.50;;
6077;SDS011;3067;49.470;10.394;2022-09-27T04:48:41;3.00;;;1.87;;
6077;SDS011;3067;49.470;10.394;2022-09-27T04:51:08;1.33;;;1.23;;
6077;SDS011;3067;49.470;10.394;2022-09-27T04:53:41;1.90;;;1.70;;
6077;SDS011;3067;49.470;10.394;2022-09-27T04:56:09;2.13;;;1.70;;
6077;SDS011;3067;49.470;10.394;2022-09-27T04:58:36;4.30;;;1.57;;
6077;SDS011;3067;49.470;10.394;2022-09-27T05:01:04;1.60;;;1.50;;
6077;SDS011;3067;49.470;10.394;2022-09-27T05:03:33;3.83;;;1.50;;
6077;SDS011;3067;49.470;10.394;2022-09-27T05:06:00;1.83;;;1.73;;
6077;SDS011;3067;49.470;10.394;2022-09-27T05:08:27;2.57;;;1.83;;
6077;SDS011;3067;49.470;10.394;2022-09-27T05:10:54;2.30;;;2.20;;
6077;SDS011;3067;49.470;10.394;2022-09-27T05:13:22;1.90;;;1.80;;
6077;SDS011;3067;49.470;10.394;2022-09-27T05:15:49;2.23;;;2.13;;
6077;SDS011;3067;49.470;10.394;2022-09-27T05:18:17;1.60;;;1.50;;
6077;SDS011;3067;49.470;10.394;2022-09-27T05:20:45;2.10;;;2.00;;
6077;SDS011;3067;49.470;10.394;2022-09-27T05:23:13;1.67;;;1.67;;
6077;SDS011;3067;49.470;10.394;2022-09-27T05:25:40;5.97;;;1.90;;
6077;SDS011;3067;49.470;10.394;2022-09-27T05:28:07;3.00;;;1.87;;
6077;SDS011;3067;49.470;10.394;2022-09-27T05:30:35;2.03;;;1.80;;
6077;SDS011;3067;49.470;10.394;2022-09-27T05:33:02;2.10;;;1.70;;
6077;SDS011;3067;49.470;10.394;2022-09-27T05:35:29;2.00;;;1.90;;
6077;SDS011;3067;49.470;10.394;2022-09-27T05:37:59;2.37;;;1.90;;
6077;SDS011;3067;49.470;10.394;2022-09-27T05:40:27;1.63;;;1.63;;
6077;SDS011;3067;49.470;10.394;2022-09-27T05:42:54;2.00;;;1.90;;
6077;SDS011;3067;49.470;10.394;2022-09-27T05:45:22;1.30;;;1.30;;
6077;SDS011;3067;49.470;10.394;2022-09-27T05:47:54;2.93;;;1.60;;
6077;SDS011;3067;49.470;10.394;2022-09-27T05:50:22;1.63;;;1.53;;
6077;SDS011;3067;49.470;10.394;2022-09-27T05:52:49;1.73;;;1.63;;
6077;SDS011;3067;49.470;10.394;2022-09-27T05:55:18;1.60;;;1.50;;
6077;SDS011;3067;49.470;10.394;2022-09-27T05:57:53;1.80;;;1.70;;
6077;SDS011;3067;49.470;10.394;2022-09-27T06:00:21;3.27;;;3.07;;
6077;SDS011;3067;49.470;10.394;2022-09-27T06:02:53;2.67;;;2.57;;
6077;SDS011;3067;49.470;10.394;2022-09-27T06:05:23;1.97;;;1.50;;
6077;SDS011;3067;49.470;10.394;2022-09-27T06:07:56;4.33;;;1.30;;
6077;SDS011;3067;49.470;10.394;2022-09-27T06:10:25;1.80;;;1.80;;
6077;SDS011;3067;49.470;10.394;2022-09-27T06:12:57;2.77;;;1.60;;
6077;SDS011;3067;49.470;10.394;2022-09-27T06:15:26;1.70;;;1.60;;
6077;SDS011;3067;49.470;10.394;2022-09-27T06:17:54;1.50;;;1.40;;
6077;SDS011;3067;49.470;10.394;2022-09-27T06:20:22;1.33;;;1.33;;
6077;SDS011;3067;49.470;10.394;2022-09-27T06:22:49;1.10;;;1.10;;
6077;SDS011;3067;49.470;10.394;2022-09-27T06:25:18;1.30;;;1.20;;
6077;SDS011;3067;49.470;10.394;2022-09-27T06:27:47;1.10;;;1.10;;
6077;SDS011;3067;49.470;10.394;2022-09-27T06:30:14;1.10;;;1.10;;
6077;SDS011;3067;49.470;10.394;2022-09-27T06:32:41;5.83;;;1.40;;
6077;SDS011;3067;49.470;10.394;2022-09-27T06:35:08;1.83;;;1.73;;
6077;SDS011;3067;49.470;10.394;2022-09-27T06:37:36;2.77;;;1.37;;
6077;SDS011;3067;49.470;10.394;2022-09-27T06:40:03;3.63;;;1.53;;
6077;SDS011;3067;49.470;10.394;2022-09-27T06:42:33;1.53;;;1.23;;
6077;SDS011;3067;49.470;10.394;2022-09-27T06:45:01;1.10;;;1.10;;
6077;SDS011;3067;49.470;10.394;2022-09-27T06:47:34;1.10;;;1.10;;
6077;SDS011;3067;49.470;10.394;2022-09-27T06:50:01;1.30;;;1.20;;
6077;SDS011;3067;49.470;10.394;2022-09-27T06:52:30;1.23;;;1.23;;
6077;SDS011;3067;49.470;10.394;2022-09-27T06:54:57;1.30;;;1.30;;
6077;SDS011;3067;49.470;10.394;2022-09-27T06:57:24;1.40;;;1.30;;
6077;SDS011;3067;49.470;10.394;2022-09-27T07:00:11;1.90;;;1.43;;
6077;SDS011;3067;49.470;10.394;2022-09-27T07:02:51;1.30;;;1.30;;
6077;SDS011;3067;49.470;10.394;2022-09-27T07:05:25;1.83;;;1.33;;
6077;SDS011;3067;49.470;10.394;2022-09-27T07:07:53;2.30;;;1.30;;
6077;SDS011;3067;49.470;10.394;2022-09-27T07:10:22;1.53;;;1.23;;
6077;SDS011;3067;49.470;10.394;2022-09-27T07:12:49;1.10;;;1.10;;
6077;SDS011;3067;49.470;10.394;2022-09-27T07:15:18;2.60;;;1.03;;
6077;SDS011;3067;49.470;10.394;2022-09-27T07:17:46;1.00;;;1.00;;
6077;SDS011;3067;49.470;10.394;2022-09-27T07:20:13;1.70;;;0.93;;
6077;SDS011;3067;49.470;10.394;2022-09-27T07:22:41;3.77;;;1.13;;
6077;SDS011;3067;49.470;10.394;2022-09-27T07:25:09;1.20;;;1.10;;
6077;SDS011;3067;49.470;10.394;2022-09-27T07:27:36;1.30;;;1.20;;
6077;SDS011;3067;49.470;10.394;2022-09-27T07:30:05;6.53;;;1.20;;
6077;SDS011;3067;49.470;10.394;2022-09-27T07:32:35;1.77;;;1.30;;
6077;SDS011;3067;49.470;10.394;2022-09-27T07:35:03;1.27;;;1.17;;
6077;SDS011;3067;49.470;10.394;2022-09-27T07:37:32;1.37;;;1.30;;
6077;SDS011;3067;49.470;10.394;2022-09-27T07:40:00;1.30;;;1.30;;
6077;SDS011;3067;49.470;10.394;2022-09-27T07:42:27;1.40;;;1.30;;
6077;SDS011;3067;49.470;10.394;2022-09-27T07:44:55;1.50;;;1.50;;
6077;SDS011;3067;49.470;10.394;2022-09-27T07:47:22;1.03;;;1.03;;
6077;SDS011;3067;49.470;10.394;2022-09-27T07:49:51;1.43;;;1.33;;
6077;SDS011;3067;49.470;10.394;2022-09-27T07:52:20;1.20;;;1.10;;
6077;SDS011;3067;49.470;10.394;2022-09-27T07:54:48;1.20;;;1.20;;
6077;SDS011;3067;49.470;10.394;2022-09-27T07:57:15;1.07;;;1.07;;
6077;SDS011;3067;49.470;10.394;2022-09-27T07:59:42;2.80;;;1.20;;
6077;SDS011;3067;49.470;10.394;2022-09-27T08:02:10;1.23;;;1.07;;
6077;SDS011;3067;49.470;10.394;2022-09-27T08:04:40;2.90;;;1.40;;
6077;SDS011;3067;49.470;10.394;2022-09-27T08:07:09;1.13;;;1.13;;
6077;SDS011;3067;49.470;10.394;2022-09-27T08:09:36;1.10;;;1.00;;
6077;SDS011;3067;49.470;10.394;2022-09-27T08:12:04;1.20;;;1.20;;
6077;SDS011;3067;49.470;10.394;2022-09-27T08:14:32;2.40;;;1.27;;
6077;SDS011;3067;49.470;10.394;2022-09-27T08:16:59;1.20;;;1.20;;
6077;SDS011;3067;49.470;10.394;2022-09-27T08:19:26;1.27;;;1.27;;
6077;SDS011;3067;49.470;10.394;2022-09-27T08:21:54;4.63;;;1.30;;
6077;SDS011;3067;49.470;10.394;2022-09-27T08:24:22;1.20;;;1.20;;
6077;SDS011;3067;49.470;10.394;2022-09-27T08:26:50;1.30;;;1.30;;
6077;SDS011;3067;49.470;10.394;2022-09-27T08:29:17;1.30;;;1.20;;
6077;SDS011;3067;49.470;10.394;2022-09-27T08:31:44;1.30;;;1.30;;
6077;SDS011;3067;49.470;10.394;2022-09-27T08:34:12;0.97;;;0.97;;
6077;SDS011;3067;49.470;10.394;2022-09-27T08:36:39;1.30;;;1.20;;
6077;SDS011;3067;49.470;10.394;2022-09-27T08:39:08;1.37;;;1.27;;
6077;SDS011;3067;49.470;10.394;2022-09-27T08:41:37;1.23;;;1.23;;
6077;SDS011;3067;49.470;10.394;2022-09-27T08:44:11;1.90;;;1.47;;
6077;SDS011;3067;49.470;10.394;2022-09-27T08:46:49;1.20;;;1.20;;
6077;SDS011;3067;49.470;10.394;2022-09-27T08:49:23;1.20;;;1.20;;
6077;SDS011;3067;49.470;10.394;2022-09-27T08:51:56;1.90;;;1.80;;
6077;SDS011;3067;49.470;10.394;2022-09-27T08:54:25;1.47;;;1.37;;
6077;SDS011;3067;49.470;10.394;2022-09-27T08:56:58;1.20;;;1.10;;
6077;SDS011;3067;49.470;10.394;2022-09-27T08:59:29;1.30;;;1.20;;
6077;SDS011;3067;49.470;10.394;2022-09-27T09:02:00;1.20;;;1.20;;
6077;SDS011;3067;49.470;10.394;2022-09-27T09:04:30;1.60;;;1.50;;
6077;SDS011;3067;49.470;10.394;2022-09-27T09:07:03;1.43;;;1.10;;
6077;SDS011;3067;49.470;10.394;2022-09-27T09:09:37;1.27;;;1.20;;
6077;SDS011;3067;49.470;10.394;2022-09-27T09:12:15;1.43;;;1.33;;
6077;SDS011;3067;49.470;10.394;2022-09-27T09:15:14;1.50;;;1.40;;
6077;SDS011;3067;49.470;10.394;2022-09-27T09:18:01;1.00;;;1.00;;
6077;SDS011;3067;49.470;10.394;2022-09-27T09:20:54;1.10;;;1.10;;
6077;SDS011;3067;49.470;10.394;2022-09-27T09:23:32;2.80;;;1.47;;
6077;SDS011;3067;49.470;10.394;2022-09-27T09:26:14;1.40;;;1.30;;
6077;SDS011;3067;49.470;10.394;2022-09-27T09:28:52;1.10;;;1.10;;
6077;SDS011;3067;49.470;10.394;2022-09-27T09:31:31;1.30;;;1.30;;
6077;SDS011;3067;49.470;10.394;2022-09-27T09:34:07;1.20;;;1.20;;
6077;SDS011;3067;49.470;10.394;2022-09-27T09:36:42;1.00;;;1.00;;
6077;SDS011;3067;49.470;10.394;2022-09-27T09:39:13;3.90;;;1.00;;
6077;SDS011;3067;49.470;10.394;2022-09-27T09:41:54;1.00;;;0.90;;
6077;SDS011;3067;49.470;10.394;2022-09-27T09:44:31;1.10;;;1.10;;
6077;SDS011;3067;49.470;10.394;2022-09-27T09:47:10;2.40;;;1.10;;
6077;SDS011;3067;49.470;10.394;2022-09-27T09:49:52;1.00;;;1.00;;
6077;SDS011;3067;49.470;10.394;2022-09-27T09:52:24;2.20;;;1.10;;
6077;SDS011;3067;49.470;10.394;2022-09-27T09:54:59;2.20;;;0.97;;
6077;SDS011;3067;49.470;10.394;2022-09-27T09:57:34;1.03;;;1.03;;
6077;SDS011;3067;49.470;10.394;2022-09-27T10:00:13;1.10;;;1.10;;
6077;SDS011;3067;49.470;10.394;2022-09-27T10:02:42;1.37;;;1.27;;
6077;SDS011;3067;49.470;10.394;2022-09-27T10:05:12;1.23;;;1.10;;
6077;SDS011;3067;49.470;10.394;2022-09-27T10:07:40;1.00;;;0.90;;
6077;SDS011;3067;49.470;10.394;2022-09-27T10:10:10;3.30;;;2.20;;
6077;SDS011;3067;49.470;10.394;2022-09-27T10:12:39;0.87;;;0.87;;
6077;SDS011;3067;49.470;10.394;2022-09-27T10:15:11;1.00;;;1.00;;
6077;SDS011;3067;49.470;10.394;2022-09-27T10:17:44;0.90;;;0.90;;
6077;SDS011;3067;49.470;10.394;2022-09-27T10:20:16;0.80;;;0.80;;
6077;SDS011;3067;49.470;10.394;2022-09-27T10:22:52;0.80;;;0.80;;
6077;SDS011;3067;49.470;10.394;2022-09-27T10:25:20;1.93;;;1.83;;
6077;SDS011;3067;49.470;10.394;2022-09-27T10:27:48;0.90;;;0.90;;
6077;SDS011;3067;49.470;10.394;2022-09-27T10:30:25;0.90;;;0.90;;
6077;SDS011;3067;49.470;10.394;2022-09-27T10:32:55;1.00;;;0.90;;
6077;SDS011;3067;49.470;10.394;2022-09-27T10:35:33;2.00;;;1.90;;
6077;SDS011;3067;49.470;10.394;2022-09-27T10:38:22;0.97;;;0.90;;
6077;SDS011;3067;49.470;10.394;2022-09-27T10:40:51;1.10;;;1.10;;
6077;SDS011;3067;49.470;10.394;2022-09-27T10:43:23;2.07;;;1.23;;
6077;SDS011;3067;49.470;10.394;2022-09-27T10:45:59;1.20;;;1.10;;
6077;SDS011;3067;49.470;10.394;2022-09-27T10:48:33;1.30;;;1.30;;
6077;SDS011;3067;49.470;10.394;2022-09-27T10:51:02;1.30;;;1.30;;
6077;SDS011;3067;49.470;10.394;2022-09-27T10:53:31;1.60;;;1.47;;
6077;SDS011;3067;49.470;10.394;2022-09-27T10:56:00;1.33;;;1.20;;
6077;SDS011;3067;49.470;10.394;2022-09-27T10:58:30;1.10;;;1.10;;
6077;SDS011;3067;49.470;10.394;2022-09-27T11:01:00;1.20;;;1.20;;
6077;SDS011;3067;49.470;10.394;2022-09-27T11:03:30;1.10;;;1.10;;
6077;SDS011;3067;49.470;10.394;2022-09-27T11:05:59;2.70;;;1.80;;
6077;SDS011;3067;49.470;10.394;2022-09-27T11:08:43;1.20;;;1.20;;
6077;SDS011;3067;49.470;10.394;2022-09-27T11:11:15;1.20;;;1.20;;
6077;SDS011;3067;49.470;10.394;2022-09-27T11:13:58;1.80;;;1.23;;
6077;SDS011;3067;49.470;10.394;2022-09-27T11:19:26;1.47;;;1.07;;
6077;SDS011;3067;49.470;10.394;2022-09-27T11:22:07;1.00;;;1.00;;
6077;SDS011;3067;49.470;10.394;2022-09-27T11:24:44;1.40;;;1.40;;
6077;SDS011;3067;49.470;10.394;2022-09-27T11:27:17;1.30;;;1.30;;
6077;SDS011;3067;49.470;10.394;2022-09-27T11:29:51;1.50;;;1.40;;
6077;SDS011;3067;49.470;10.394;2022-09-27T11:32:28;1.73;;;1.63;;
6077;SDS011;3067;49.470;10.394;2022-09-27T11:37:47;1.63;;;1.60;;
6077;SDS011;3067;49.470;10.394;2022-09-27T11:40:18;5.83;;;1.90;;
6077;SDS011;3067;49.470;10.394;2022-09-27T11:42:57;1.77;;;1.67;;
6077;SDS011;3067;49.470;10.394;2022-09-27T11:45:34;1.60;;;1.60;;
6077;SDS011;3067;49.470;10.394;2022-09-27T11:48:11;2.03;;;1.97;;
6077;SDS011;3067;49.470;10.394;2022-09-27T11:53:27;3.53;;;3.23;;
6077;SDS011;3067;49.470;10.394;2022-09-27T11:55:59;2.90;;;2.50;;
6077;SDS011;3067;49.470;10.394;2022-09-27T11:58:30;2.40;;;1.73;;
6077;SDS011;3067;49.470;10.394;2022-09-27T12:01:02;1.40;;;1.30;;
6077;SDS011;3067;49.470;10.394;2022-09-27T12:03:39;1.17;;;1.17;;
6077;SDS011;3067;49.470;10.394;2022-09-27T12:06:11;2.67;;;1.43;;
6077;SDS011;3067;49.470;10.394;2022-09-27T12:08:47;5.30;;;1.40;;
6077;SDS011;3067;49.470;10.394;2022-09-27T12:11:18;2.20;;;2.10;;
6077;SDS011;3067;49.470;10.394;2022-09-27T12:13:47;1.80;;;1.70;;
6077;SDS011;3067;49.470;10.394;2022-09-27T12:16:16;3.07;;;1.90;;
6077;SDS011;3067;49.470;10.394;2022-09-27T12:18:47;1.87;;;1.77;;
6077;SDS011;3067;49.470;10.394;2022-09-27T12:21:14;1.37;;;1.27;;
6077;SDS011;3067;49.470;10.394;2022-09-27T12:23:42;1.20;;;1.10;;
6077;SDS011;3067;49.470;10.394;2022-09-27T12:26:12;1.20;;;1.10;;
6077;SDS011;3067;49.470;10.394;2022-09-27T12:28:42;1.67;;;1.57;;
6077;SDS011;3067;49.470;10.394;2022-09-27T12:31:12;1.50;;;1.40;;
6077;SDS011;3067;49.470;10.394;2022-09-27T12:33:42;1.80;;;1.70;;
6077;SDS011;3067;49.470;10.394;2022-09-27T12:36:14;1.63;;;1.53;;
6077;SDS011;3067;49.470;10.394;2022-09-27T12:38:44;1.93;;;1.83;;
6077;SDS011;3067;49.470;10.394;2022-09-27T12:41:15;2.63;;;2.10;;
6077;SDS011;3067;49.470;10.394;2022-09-27T12:43:43;1.70;;;1.60;;
6077;SDS011;3067;49.470;10.394;2022-09-27T12:46:12;1.13;;;1.03;;
6077;SDS011;3067;49.470;10.394;2022-09-27T12:48:44;1.80;;;1.20;;
6077;SDS011;3067;49.470;10.394;2022-09-27T12:51:15;1.00;;;1.00;;
6077;SDS011;3067;49.470;10.394;2022-09-27T12:53:48;0.73;;;0.73;;
6077;SDS011;3067;49.470;10.394;2022-09-27T12:56:27;2.23;;;0.77;;
6077;SDS011;3067;49.470;10.394;2022-09-27T12:59:01;0.70;;;0.70;;
6077;SDS011;3067;49.470;10.394;2022-09-27T13:01:40;0.90;;;0.90;;
6077;SDS011;3067;49.470;10.394;2022-09-27T13:04:15;1.00;;;0.90;;
6077;SDS011;3067;49.470;10.394;2022-09-27T13:09:45;0.80;;;0.80;;
6077;SDS011;3067;49.470;10.394;2022-09-27T13:12:16;0.73;;;0.73;;
6077;SDS011;3067;49.470;10.394;2022-09-27T13:14:47;0.80;;;0.80;;
6077;SDS011;3067;49.470;10.394;2022-09-27T13:17:34;1.00;;;1.00;;
6077;SDS011;3067;49.470;10.394;2022-09-27T13:22:56;1.40;;;1.30;;
6077;SDS011;3067;49.470;10.394;2022-09-27T13:30:53;1.17;;;1.17;;
6077;SDS011;3067;49.470;10.394;2022-09-27T13:33:27;1.40;;;1.30;;
6077;SDS011;3067;49.470;10.394;2022-09-27T13:36:07;1.53;;;1.40;;
6077;SDS011;3067;49.470;10.394;2022-09-27T13:38:35;1.90;;;1.80;;
6077;SDS011;3067;49.470;10.394;2022-09-27T13:41:12;1.33;;;1.33;;
6077;SDS011;3067;49.470;10.394;2022-09-27T13:43:44;3.63;;;1.80;;
6077;SDS011;3067;49.470;10.394;2022-09-27T13:46:17;1.53;;;1.30;;
6077;SDS011;3067;49.470;10.394;2022-09-27T13:48:46;1.60;;;1.50;;
6077;SDS011;3067;49.470;10.394;2022-09-27T13:51:20;1.43;;;1.43;;
6077;SDS011;3067;49.470;10.394;2022-09-27T13:53:58;1.67;;;1.57;;
6077;SDS011;3067;49.470;10.394;2022-09-27T13:59:12;2.00;;;1.70;;
6077;SDS011;3067;49.470;10.394;2022-09-27T14:01:44;1.60;;;1.60;;
6077;SDS011;3067;49.470;10.394;2022-09-27T14:04:14;6.00;;;1.70;;
6077;SDS011;3067;49.470;10.394;2022-09-27T14:06:44;1.60;;;1.50;;
6077;SDS011;3067;49.470;10.394;2022-09-27T14:09:15;3.57;;;1.30;;
6077;SDS011;3067;49.470;10.394;2022-09-27T14:11:43;1.77;;;1.60;;
6077;SDS011;3067;49.470;10.394;2022-09-27T14:14:18;1.47;;;1.47;;
6077;SDS011;3067;49.470;10.394;2022-09-27T14:16:49;1.43;;;1.33;;
6077;SDS011;3067;49.470;10.394;2022-09-27T14:19:18;1.10;;;1.10;;
6077;SDS011;3067;49.470;10.394;2022-09-27T14:22:07;1.40;;;1.30;;
6077;SDS011;3067;49.470;10.394;2022-09-27T14:24:44;1.40;;;1.30;;
6077;SDS011;3067;49.470;10.394;2022-09-27T14:27:13;8.67;;;1.27;;
6077;SDS011;3067;49.470;10.394;2022-09-27T14:29:42;1.20;;;1.20;;
6077;SDS011;3067;49.470;10.394;2022-09-27T14:32:12;1.10;;;1.10;;
6077;SDS011;3067;49.470;10.394;2022-09-27T14:34:40;1.17;;;1.17;;
6077;SDS011;3067;49.470;10.394;2022-09-27T14:37:18;1.10;;;1.10;;
6077;SDS011;3067;49.470;10.394;2022-09-27T14:39:54;0.90;;;0.90;;
6077;SDS011;3067;49.470;10.394;2022-09-27T14:42:23;0.87;;;0.87;;
6077;SDS011;3067;49.470;10.394;2022-09-27T14:44:50;1.33;;;1.33;;
6077;SDS011;3067;49.470;10.394;2022-09-27T14:47:21;0.97;;;0.97;;
6077;SDS011;3067;49.470;10.394;2022-09-27T14:49:49;1.10;;;1.10;;
6077;SDS011;3067;49.470;10.394;2022-09-27T14:52:18;3.17;;;1.10;;
6077;SDS011;3067;49.470;10.394;2022-09-27T14:54:55;1.13;;;1.10;;
6077;SDS011;3067;49.470;10.394;2022-09-27T14:57:22;1.30;;;1.20;;
6077;SDS011;3067;49.470;10.394;2022-09-27T14:59:51;1.30;;;1.03;;
6077;SDS011;3067;49.470;10.394;2022-09-27T15:02:19;1.47;;;1.37;;
6077;SDS011;3067;49.470;10.394;2022-09-27T15:04:49;3.13;;;1.40;;
6077;SDS011;3067;49.470;10.394;2022-09-27T15:07:16;1.20;;;1.10;;
6077;SDS011;3067;49.470;10.394;2022-09-27T15:09:46;2.10;;;1.90;;
6077;SDS011;3067;49.470;10.394;2022-09-27T15:12:15;2.00;;;1.27;;
6077;SDS011;3067;49.470;10.394;2022-09-27T15:14:47;1.00;;;1.00;;
6077;SDS011;3067;49.470;10.394;2022-09-27T15:17:14;1.27;;;1.17;;
6077;SDS011;3067;49.470;10.394;2022-09-27T15:19:59;1.00;;;1.00;;
6077;SDS011;3067;49.470;10.394;2022-09-27T15:22:34;1.03;;;0.80;;
6077;SDS011;3067;49.470;10.394;2022-09-27T15:25:06;0.90;;;0.90;;
6077;SDS011;3067;49.470;10.394;2022-09-27T15:27:37;1.00;;;1.00;;
6077;SDS011;3067;49.470;10.394;2022-09-27T15:30:05;1.13;;;1.13;;
6077;SDS011;3067;49.470;10.394;2022-09-27T15:32:32;4.23;;;0.90;;
6077;SDS011;3067;49.470;10.394;2022-09-27T15:35:06;0.93;;;0.80;;
6077;SDS011;3067;49.470;10.394;2022-09-27T15:37:34;1.10;;;1.00;;
6077;SDS011;3067;49.470;10.394;2022-09-27T15:40:07;0.90;;;0.90;;
6077;SDS011;3067;49.470;10.394;2022-09-27T15:42:56;1.10;;;1.00;;
6077;SDS011;3067;49.470;10.394;2022-09-27T15:45:28;0.90;;;0.90;;
6077;SDS011;3067;49.470;10.394;2022-09-27T15:47:56;0.90;;;0.90;;
6077;SDS011;3067;49.470;10.394;2022-09-27T15:50:34;0.80;;;0.80;;